Terminal Aerodrome Forecast
Issued by NWS

Home | Current Version | Previous Version | Text Only | Print | Product List | Glossary On
Versions: 1 2 3 4 5 6 7 8 9 10 11 12 13 14 15 16 17 18 19 20 21 22 23 24 25 26 27 28 29 30 31 32 33 34 35 36 37 38 39 40 41 42 43 44 45 46 47
000
FTUS43 KBIS 200531
TAFXWA
TAF
KXWA 200531Z 2006/2106 14009KT P6SM VCSH SCT015 OVC040
     FM200800 14009KT 2SM -SN BR SCT005 OVC010
     FM201500 33011KT P6SM VCSH SCT007 OVC013
     FM201800 30022G31KT P6SM SCT010 OVC020
     FM210100 30015KT P6SM SCT040=

USA.gov is the U.S. government's official web portal to all federal, state and local government web resources and services.